SCATSCSE

Guest
Details From SCAT - DESIERTO DE ATACAMA
To SCSE - LA FLORIDA
Flight Number -
Tags generated
Created
Modified
Stats Distance 211 nm / 390 km
Max Altitude 9,500 ft / 2,896 m
Waypoints 4
Social Downloads 0
Likes 0
Share VATSIM

Download

Looking for another format? Having issues loading an existing format? Contact us
Advertisement - Login to hide

Notes

Basic altitude profile: - Ascent Rate: 2500ft/min - Ascent Speed: 250kts - Cruise Altitude: 35000ft - Cruise Speed: 420kts - Descent Rate: 1500ft/min - Descent Speed: 250kts Options: - Use NATs: yes - Use PACOTS: yes - Use low airways: yes - Use high airways: yes

Route

SCAT DAT VW200 TOY SCSE

ID Type Via Altitude Latitude Longitude Leg Dist Tot Dist Heading (true) Name
O SCAT APT - 0 ft / 0 m -27.26125˚ -70.77922˚ - 0 nm - DESIERTO DE ATACAMA
DAT VOR - 300 ft / 91 m -27.27944˚ -70.77611˚ 1 nm 1 nm 171° / 171° ATACAMA VOR-DME
TOY VOR VW200 (AWY-LO) 9,500 ft / 2,896 m -30.27639˚ -71.47361˚ 183 nm 184 nm 191° / 192° TONGOY VOR-DME
O SCSE APT - 0 ft / 0 m -29.91698˚ -71.19896˚ 25 nm 210 nm 34° / 33° LA FLORIDA

Altitude Profile

Advertisement - Login to hide

Weather


0- 5 10 15 20 25 30 35+ Temperature / ° C

Clouds and Precipitation
Forecast for 2017-12-16 12:00 UTC. Updated 38 minutes ago

Ground ~20,000 ft ~40,000 ft Winds

SCAT

Details ICAO SCAT
Name DESIERTO DE ATACAMA
Region Chile
Timezone America/Santiago (UTC-3.0)
Stats Elevation 670 ft / 204 m (AMSL)
Location -27.261246° -70.779220°
Runways 1
Magnetic Variation 1.437° W

METAR

SCAT 160700Z AUTO 34005KT //// // ///023 17/13 Q1013

Decode

TAF

TAF SCAT 160442Z 1606/1706 33004KT 9999 OVC019 TN14/1606Z TX24/1618Z BECMG 1612/1614 27010KT BECMG 1616/1618 CAVOK BECMG 1700/1702 24004KT 9999 OVC020

Decode

Departure Runways

ID Width Length Bearing (true) Bearing (mag) Surface Threshold Offset Overrun Length
17 148 ft / 45 m 7,214 ft / 2,199 m 175.35° 176.79° Asphalt 0 ft / 0 m 195 ft / 59 m
35 148 ft / 45 m 7,214 ft / 2,199 m 355.35° 356.79° Asphalt 0 ft / 0 m 195 ft / 59 m

SCSE

Details ICAO SCSE (LSC)
Name LA FLORIDA
Region Chile
Timezone America/Santiago (UTC-3.0)
Stats Elevation 481 ft / 147 m (AMSL)
Location -29.916976° -71.198962°
Runways 2
Magnetic Variation 0.290° E

METAR

SCSE 160700Z 00000KT CAVOK 14/13 Q1011

Decode

TAF

TAF SCSE 160400Z 1606/1706 14004KT CAVOK TX20/1619Z TN13/1610Z TEMPO 1607/1612 7000 SCT007 BKN012 BECMG 1615/1617 28010KT BECMG 1701/1703 15004KT

Decode

Destination Runways

ID Width Length Bearing (true) Bearing (mag) Surface Threshold Offset Overrun Length
11 148 ft / 45 m 6,346 ft / 1,934 m 116.04° 115.75° Asphalt 0 ft / 0 m 100 ft / 30 m
11R 105 ft / 32 m 4,452 ft / 1,357 m 116.04° 115.75° Dirt 0 ft / 0 m 0 ft / 0 m
29 148 ft / 45 m 6,346 ft / 1,934 m 296.03° 295.74° Asphalt 0 ft / 0 m 100 ft / 30 m
29L 105 ft / 32 m 4,452 ft / 1,357 m 296.04° 295.75° Dirt 0 ft / 0 m 0 ft / 0 m

Popular Alternatives